Huvudsida
METAR-TAF:

METAR-TAF

Flygplatser :

Gibraltar, Gibraltar

Gibraltar International Airport

latitud: 36-09N, longitud: 005-21W, höjd: 5 m

Aktuellt väderrapport

Denna rapport gjordes för 1 timme och 1 minuter sedan, klockan 03:50 UTC
Vind 7 kt från väst
Temperatur 10°C
Fuktighet 46%
Tryck 1005 hPa
Sikt 10 km eller mer

METAR: LXGB 230350Z AUTO 26007KT 9999 // NCD 10/M01 Q1005

Tid: 05:51 (04:51 UTC)

Väderprognos

Denna rapport gjordes för 12 timmar och 34 minuter sedan, klockan 16:17 UTC
Prognos gäller från 22 kl. 18 UTC till 22 kl. 22 UTC
Vind 12 kt från väst
Sikt 10 km eller mer
Inga moln under 1 500 m eller inga cumulonimbus

TAF: LXGB 221617Z 2218/2222 26012KT CAVOK

Aktuella väderrapporter och prognoser från 4000 flygplatser (METAR- och TAF-rapporter).

De tillgängliga stationerna syns som gula och röda prickar på kartan.

För musen över prickarna för att se namnen på stationerna.

Klicka sedan för att få väderrapporter och prognoser.

För att ändra kartan: Klicka på de gröna knapparna med ett svart kors på för att zooma in; den gröna knappen med ett streck på för att zooma ut; eller på de gröna pilarna för angränsande kartor.


METAR-TAF: